Time;durP1;ratioP1;P1;durP2;ratioP2;P2;SDS_P1;SDS_P2;PMS_P1;PMS_P2;Temp;Humidity;BMP_temperature;BMP_pressure;BME280_temperature;BME280_humidity;BME280_pressure;Samples;Min_cycle;Max_cycle;Signal;HPM_P1;HPM_P2
2021/05/22 00:02:11;;;;;;;0.03;0.03;;;16.30;61.10;;;;;;6263439;28;20055;-77
2021/05/22 00:05:12;;;;;;;0.28;0.10;;;16.40;61.10;;;;;;6285968;28;20029;-77
2021/05/22 00:08:14;;;;;;;1.02;0.30;;;16.40;61.80;;;;;;6281050;28;20470;-77
2021/05/22 00:11:15;;;;;;;0.20;0.10;;;16.40;61.20;;;;;;6270899;28;20493;-76
2021/05/22 00:14:16;;;;;;;2.13;0.40;;;16.40;60.30;;;;;;6280717;28;20033;-77
2021/05/22 00:17:17;;;;;;;0.80;0.20;;;16.50;60.70;;;;;;6283017;28;20036;-76
2021/05/22 00:20:18;;;;;;;0.10;0.10;;;16.50;60.70;;;;;;6253466;28;20036;-77
2021/05/22 00:23:20;;;;;;;0.85;0.30;;;16.50;60.60;;;;;;6265011;28;20047;-76
2021/05/22 00:26:21;;;;;;;0.32;0.22;;;16.50;60.70;;;;;;6260869;28;20076;-76
2021/05/22 00:29:23;;;;;;;0.20;0.20;;;16.50;60.70;;;;;;6271300;28;20051;-76
2021/05/22 00:32:24;;;;;;;0.60;0.10;;;16.60;60.80;;;;;;6274395;28;20114;-77
2021/05/22 00:35:25;;;;;;;0.30;0.30;;;16.50;60.90;;;;;;6268159;28;20037;-77
2021/05/22 00:38:27;;;;;;;0.20;0.10;;;16.50;61.30;;;;;;6264568;28;20510;-76
2021/05/22 00:41:28;;;;;;;1.25;0.60;;;16.40;61.60;;;;;;6268978;28;20036;-77
2021/05/22 00:44:31;;;;;;;0.55;0.10;;;16.40;62.20;;;;;;6290160;28;20033;-77
2021/05/22 00:47:33;;;;;;;0.20;0.20;;;16.30;62.20;;;;;;6291362;28;20052;-76
2021/05/22 00:50:38;;;;;;;2.65;0.40;;;16.30;62.10;;;;;;6281482;28;20033;-76
2021/05/22 00:53:39;;;;;;;0.10;0.10;;;16.30;62.20;;;;;;6259456;28;20024;-77
2021/05/22 00:56:40;;;;;;;2.67;0.57;;;16.30;62.10;;;;;;6282932;28;20040;-77
2021/05/22 00:59:43;;;;;;;0.90;0.22;;;16.20;62.40;;;;;;6271301;28;20411;-77
2021/05/22 01:02:47;;;;;;;1.55;0.20;;;16.20;62.50;;;;;;6273588;28;20033;-77
2021/05/22 01:05:48;;;;;;;0.10;0.10;;;16.20;62.80;;;;;;6273976;28;20420;-77
2021/05/22 01:09:05;;;;;;;0.10;0.10;;;16.10;62.80;;;;;;6292872;28;20037;-76
2021/05/22 01:12:08;;;;;;;1.00;0.17;;;16.00;62.90;;;;;;6291268;28;20530;-76
2021/05/22 01:15:27;;;;;;;3.33;0.40;;;16.00;63.00;;;;;;6267950;28;20131;-76
2021/05/22 01:18:30;;;;;;;0.55;0.25;;;16.00;63.20;;;;;;6284286;28;20048;-76
2021/05/22 01:21:36;;;;;;;1.40;0.40;;;16.00;63.20;;;;;;6258985;28;20131;-76
2021/05/22 01:25:10;;;;;;;0.20;0.20;;;16.00;63.00;;;;;;6270629;28;20033;-76
2021/05/22 01:28:12;;;;;;;2.40;0.30;;;16.00;62.90;;;;;;6263556;28;20468;-77
2021/05/22 01:31:13;;;;;;;1.20;0.45;;;16.00;62.50;;;;;;6276871;28;20048;-77
2021/05/22 01:34:15;;;;;;;3.33;0.43;;;15.90;61.60;;;;;;6267869;28;20512;-78
2021/05/22 01:37:17;;;;;;;0.43;0.20;;;15.80;61.10;;;;;;6251749;28;20124;-77
2021/05/22 01:40:18;;;;;;;3.05;0.30;;;15.90;60.90;;;;;;6282658;28;20033;-77
2021/05/22 01:43:20;;;;;;;0.20;0.20;;;15.90;60.60;;;;;;6261068;28;20132;-76
2021/05/22 01:46:23;;;;;;;0.52;0.25;;;16.00;60.40;;;;;;6278985;28;20037;-77
2021/05/22 01:49:26;;;;;;;0.25;0.20;;;16.00;60.10;;;;;;6255337;28;20090;-76
2021/05/22 01:52:29;;;;;;;0.47;0.20;;;16.00;60.00;;;;;;6291935;28;20048;-77
2021/05/22 01:55:32;;;;;;;0.28;0.28;;;16.00;60.00;;;;;;6295624;28;20108;-75
2021/05/22 01:58:33;;;;;;;0.65;0.40;;;16.10;60.00;;;;;;6297072;28;20107;-76
2021/05/22 02:01:34;;;;;;;0.57;0.28;;;16.10;59.80;;;;;;6273132;28;20039;-76
2021/05/22 02:04:44;;;;;;;0.65;0.20;;;16.10;59.80;;;;;;6262298;28;20458;-76
2021/05/22 02:07:48;;;;;;;1.05;0.43;;;16.10;59.80;;;;;;6283249;28;20032;-76
2021/05/22 02:10:50;;;;;;;0.30;0.28;;;16.10;59.70;;;;;;6266424;28;20346;-77
2021/05/22 02:13:53;;;;;;;0.57;0.40;;;16.10;59.80;;;;;;6272943;28;20032;-77
2021/05/22 02:16:56;;;;;;;0.90;0.40;;;16.10;59.90;;;;;;6295990;28;20051;-77
2021/05/22 02:19:58;;;;;;;0.38;0.25;;;16.00;60.20;;;;;;6271236;28;20078;-76
2021/05/22 02:23:03;;;;;;;0.82;0.50;;;15.90;60.70;;;;;;6243546;28;20033;-77
2021/05/22 02:26:04;;;;;;;0.45;0.20;;;15.90;61.20;;;;;;6280192;28;20101;-77
2021/05/22 02:29:06;;;;;;;0.32;0.30;;;15.90;61.60;;;;;;6296595;28;20041;-76
2021/05/22 02:32:08;;;;;;;0.63;0.25;;;15.90;61.70;;;;;;6296181;28;20358;-76
2021/05/22 02:35:11;;;;;;;0.15;0.15;;;15.90;61.50;;;;;;6296304;28;20101;-76
2021/05/22 02:38:18;;;;;;;0.55;0.47;;;15.90;61.40;;;;;;6277814;28;20144;-76
2021/05/22 02:41:21;;;;;;;0.20;0.20;;;15.90;61.30;;;;;;6281538;28;20052;-77
2021/05/22 02:44:26;;;;;;;1.30;0.30;;;15.90;61.10;;;;;;6272623;28;20582;-77
2021/05/22 02:47:29;;;;;;;3.78;0.50;;;15.90;62.10;;;;;;6273356;28;20041;-77
2021/05/22 02:50:33;;;;;;;1.10;0.38;;;15.80;61.30;;;;;;6262191;28;20032;-77
2021/05/22 02:53:36;;;;;;;0.40;0.40;;;15.80;61.60;;;;;;6269315;28;20032;-77
2021/05/22 02:56:38;;;;;;;0.40;0.30;;;15.70;61.60;;;;;;6303973;28;20036;-77
2021/05/22 02:59:40;;;;;;;4.00;0.50;;;15.70;61.70;;;;;;6295944;28;20036;-77
2021/05/22 03:02:43;;;;;;;0.65;0.30;;;15.70;62.10;;;;;;6280282;28;20098;-75
2021/05/22 03:05:45;;;;;;;3.22;0.60;;;15.60;62.20;;;;;;6295999;28;20060;-75
2021/05/22 03:08:48;;;;;;;0.40;0.30;;;15.60;62.10;;;;;;6280112;28;20103;-75
2021/05/22 03:11:49;;;;;;;0.50;0.20;;;15.60;61.70;;;;;;6262975;28;20053;-75
2021/05/22 03:14:51;;;;;;;0.32;0.30;;;15.60;61.60;;;;;;6274668;28;20041;-77
2021/05/22 03:17:52;;;;;;;0.77;0.52;;;15.50;61.60;;;;;;6279574;28;20025;-77
2021/05/22 03:20:54;;;;;;;0.25;0.20;;;15.50;61.90;;;;;;6267758;28;20051;-76
2021/05/22 03:23:55;;;;;;;0.68;0.32;;;15.50;61.90;;;;;;6297212;28;20044;-76
2021/05/22 03:26:58;;;;;;;2.28;0.17;;;15.40;61.90;;;;;;6296121;28;20032;-76
2021/05/22 03:29:59;;;;;;;1.13;0.20;;;15.40;62.10;;;;;;6279010;28;20381;-76
2021/05/22 03:33:00;;;;;;;0.82;0.40;;;15.30;62.30;;;;;;6271122;28;20036;-77
2021/05/22 03:36:01;;;;;;;0.75;0.40;;;15.30;62.60;;;;;;6269221;28;20454;-76
2021/05/22 03:39:03;;;;;;;3.83;0.30;;;15.30;62.90;;;;;;6296140;28;20029;-76
2021/05/22 03:42:05;;;;;;;1.52;0.60;;;15.30;63.10;;;;;;6255822;28;20041;-76
2021/05/22 03:45:06;;;;;;;1.15;0.40;;;15.30;64.10;;;;;;6245052;28;20041;-76
2021/05/22 03:48:07;;;;;;;0.40;0.40;;;15.30;63.60;;;;;;6254561;28;20056;-76
2021/05/22 03:51:08;;;;;;;1.20;0.40;;;15.20;63.80;;;;;;6257915;28;20458;-76
2021/05/22 03:54:10;;;;;;;0.52;0.52;;;15.20;64.00;;;;;;6271203;28;20373;-76
2021/05/22 03:57:11;;;;;;;1.35;0.55;;;15.20;64.30;;;;;;6253512;28;20053;-76
2021/05/22 04:00:13;;;;;;;1.50;0.60;;;15.20;64.50;;;;;;6253983;28;20439;-76
2021/05/22 04:03:14;;;;;;;1.30;0.70;;;15.20;64.60;;;;;;6281370;28;20094;-76
2021/05/22 04:06:15;;;;;;;1.45;0.77;;;15.10;64.60;;;;;;6271048;28;20080;-77
2021/05/22 04:09:16;;;;;;;1.48;0.80;;;15.10;64.70;;;;;;6275295;28;20036;-77
2021/05/22 04:12:18;;;;;;;1.40;0.70;;;15.10;64.80;;;;;;6272144;28;20090;-77
2021/05/22 04:15:19;;;;;;;8.00;0.88;;;15.10;64.90;;;;;;6253815;28;20339;-77
2021/05/22 04:18:20;;;;;;;3.33;0.65;;;15.10;64.80;;;;;;6254525;28;20040;-77
2021/05/22 04:21:21;;;;;;;2.78;0.90;;;15.10;64.80;;;;;;6256600;28;20037;-76
2021/05/22 04:24:23;;;;;;;9.23;0.90;;;15.10;64.90;;;;;;6254326;28;20096;-76
2021/05/22 04:27:24;;;;;;;5.05;0.90;;;15.10;64.90;;;;;;6270326;28;20084;-78
2021/05/22 04:30:26;;;;;;;7.13;0.75;;;15.10;64.80;;;;;;6254095;28;20041;-76
2021/05/22 04:33:27;;;;;;;1.83;0.60;;;15.10;64.60;;;;;;6253372;28;20328;-76
2021/05/22 04:36:28;;;;;;;1.00;0.80;;;15.10;64.50;;;;;;6270604;28;20037;-77
2021/05/22 04:39:29;;;;;;;0.30;0.30;;;15.10;64.70;;;;;;6271253;28;20024;-76
2021/05/22 04:42:31;;;;;;;2.08;0.47;;;15.10;64.60;;;;;;6259042;28;20116;-76
2021/05/22 04:45:32;;;;;;;1.60;0.50;;;15.10;64.60;;;;;;6252687;28;20580;-77
2021/05/22 04:48:33;;;;;;;1.02;0.40;;;15.10;64.50;;;;;;6246081;28;20037;-77
2021/05/22 04:51:35;;;;;;;2.65;0.82;;;15.10;64.70;;;;;;6254669;28;20024;-76
2021/05/22 04:54:36;;;;;;;1.33;0.50;;;15.10;64.70;;;;;;6294319;28;20119;-76
2021/05/22 04:57:37;;;;;;;0.30;0.30;;;15.20;64.30;;;;;;6276357;28;20407;-76
2021/05/22 05:00:38;;;;;;;0.30;0.30;;;15.30;64.20;;;;;;6294177;28;20037;-76
2021/05/22 05:03:39;;;;;;;0.28;0.25;;;15.30;63.80;;;;;;6294739;28;20101;-77
2021/05/22 05:06:40;;;;;;;1.83;0.70;;;15.40;63.70;;;;;;6277366;28;20063;-77
2021/05/22 05:09:43;;;;;;;0.95;0.70;;;15.40;63.70;;;;;;6243381;28;20048;-77
2021/05/22 05:12:44;;;;;;;0.40;0.40;;;15.50;63.60;;;;;;6228896;28;20040;-76
2021/05/22 05:15:45;;;;;;;1.55;0.60;;;15.50;63.60;;;;;;6266609;28;20450;-77
2021/05/22 05:18:46;;;;;;;4.00;0.32;;;15.50;63.50;;;;;;6235972;28;20033;-77
2021/05/22 05:21:47;;;;;;;2.40;0.40;;;15.50;63.40;;;;;;6274639;28;20119;-77
2021/05/22 05:24:49;;;;;;;1.25;0.40;;;15.50;63.30;;;;;;6277425;28;20354;-76
2021/05/22 05:27:50;;;;;;;1.20;0.60;;;15.60;63.20;;;;;;6295207;28;20037;-76
2021/05/22 05:30:51;;;;;;;0.75;0.40;;;15.60;63.10;;;;;;6264942;28;20044;-77
2021/05/22 05:33:52;;;;;;;2.13;0.40;;;15.60;62.90;;;;;;6282336;28;20060;-78
2021/05/22 05:36:53;;;;;;;2.53;0.82;;;15.60;62.90;;;;;;6264318;28;20112;-76
2021/05/22 05:39:54;;;;;;;4.25;0.82;;;15.70;62.80;;;;;;6266803;28;20037;-77
2021/05/22 05:43:10;;;;;;;7.32;0.82;;;15.70;62.50;;;;;;6254960;28;20033;-77
2021/05/22 05:46:12;;;;;;;3.97;0.90;;;15.70;62.40;;;;;;6264079;28;20033;-77
2021/05/22 05:49:13;;;;;;;1.13;0.60;;;15.70;62.20;;;;;;6276866;28;20382;-77
2021/05/22 05:52:15;;;;;;;0.93;0.57;;;15.60;61.70;;;;;;6262040;28;20075;-76
2021/05/22 05:55:17;;;;;;;4.63;0.80;;;15.60;61.90;;;;;;6256946;28;20449;-75
2021/05/22 05:58:19;;;;;;;2.47;0.45;;;15.70;62.10;;;;;;6295149;28;20063;-75
2021/05/22 06:01:20;;;;;;;4.30;0.80;;;15.70;62.20;;;;;;6269720;28;20462;-76
2021/05/22 06:04:21;;;;;;;0.50;0.50;;;15.80;62.30;;;;;;6273511;28;20115;-76
2021/05/22 06:07:22;;;;;;;5.40;0.45;;;15.80;62.20;;;;;;6274950;28;20037;-77
2021/05/22 06:10:23;;;;;;;1.15;0.45;;;15.90;62.10;;;;;;6282748;28;20533;-75
2021/05/22 06:13:28;;;;;;;1.08;0.70;;;16.00;61.80;;;;;;6287760;28;20036;-76
2021/05/22 06:16:34;;;;;;;0.85;0.60;;;16.10;61.70;;;;;;6265761;28;20378;-76
2021/05/22 06:19:38;;;;;;;1.55;0.90;;;16.10;61.30;;;;;;6278162;28;20481;-77
2021/05/22 06:22:40;;;;;;;1.45;0.75;;;16.10;60.70;;;;;;6294814;28;20029;-76
2021/05/22 06:25:40;;;;;;;0.73;0.60;;;16.20;60.80;;;;;;6298312;28;20029;-76
2021/05/22 06:28:42;;;;;;;0.75;0.60;;;16.20;60.50;;;;;;6281444;28;20485;-77
2021/05/22 06:31:43;;;;;;;1.20;0.73;;;16.30;60.50;;;;;;6298713;28;20048;-77
2021/05/22 06:34:44;;;;;;;1.67;0.70;;;16.30;60.40;;;;;;6276235;28;20051;-77
2021/05/22 06:37:45;;;;;;;0.73;0.40;;;16.30;60.70;;;;;;6257765;28;20037;-77
2021/05/22 06:40:47;;;;;;;1.38;0.57;;;16.40;59.80;;;;;;6274276;28;20116;-76
2021/05/22 06:43:48;;;;;;;0.50;0.43;;;16.40;59.80;;;;;;6257356;28;20037;-76
2021/05/22 06:46:49;;;;;;;0.88;0.43;;;16.40;59.50;;;;;;6277490;28;20044;-78
2021/05/22 06:49:50;;;;;;;1.23;0.57;;;16.60;59.30;;;;;;6298243;28;20037;-79
2021/05/22 06:52:52;;;;;;;0.60;0.60;;;16.70;58.90;;;;;;6263451;28;20045;-78
2021/05/22 06:55:53;;;;;;;5.63;0.63;;;16.80;58.80;;;;;;6279668;28;20036;-76
2021/05/22 06:58:54;;;;;;;0.95;0.55;;;16.90;58.70;;;;;;6303741;28;20346;-76
2021/05/22 07:01:55;;;;;;;2.58;0.45;;;17.20;58.60;;;;;;6290429;28;20515;-77
2021/05/22 07:04:56;;;;;;;1.73;0.50;;;17.50;58.00;;;;;;6257125;28;20112;-76
2021/05/22 07:07:59;;;;;;;1.92;0.47;;;17.90;57.50;;;;;;6270484;28;20037;-76
2021/05/22 07:11:00;;;;;;;3.20;0.50;;;18.10;56.00;;;;;;6274440;28;20036;-76
2021/05/22 07:14:02;;;;;;;0.57;0.50;;;18.10;55.70;;;;;;6297933;28;20036;-76
2021/05/22 07:17:03;;;;;;;0.43;0.40;;;18.10;55.10;;;;;;6281247;28;20037;-76
2021/05/22 07:20:05;;;;;;;1.60;0.47;;;18.10;54.40;;;;;;6299079;28;20121;-77
2021/05/22 07:23:06;;;;;;;1.40;0.60;;;17.90;54.00;;;;;;6279477;28;20083;-75
2021/05/22 07:26:07;;;;;;;14.93;0.90;;;17.80;54.30;;;;;;6294403;28;20052;-77
2021/05/22 07:29:09;;;;;;;0.55;0.50;;;17.80;54.40;;;;;;6279918;28;20045;-77
2021/05/22 07:32:10;;;;;;;2.92;0.70;;;17.90;54.60;;;;;;6296620;28;20044;-76
2021/05/22 07:35:13;;;;;;;3.33;0.60;;;18.00;54.00;;;;;;6288621;28;20461;-77
2021/05/22 07:38:14;;;;;;;1.50;0.50;;;18.10;53.90;;;;;;6273360;28;20028;-77
2021/05/22 07:41:15;;;;;;;0.63;0.60;;;18.20;53.20;;;;;;6273219;28;20391;-76
2021/05/22 07:44:16;;;;;;;1.50;0.63;;;18.20;53.50;;;;;;6255845;28;20037;-77
2021/05/22 07:47:18;;;;;;;1.00;0.60;;;18.20;53.80;;;;;;6272303;28;20079;-77
2021/05/22 07:50:20;;;;;;;1.95;0.40;;;18.40;53.60;;;;;;6274563;28;20450;-77
2021/05/22 07:53:21;;;;;;;3.63;0.85;;;18.50;53.20;;;;;;6302328;28;20153;-76
2021/05/22 07:56:23;;;;;;;0.80;0.40;;;18.50;52.80;;;;;;6296578;28;20440;-77
2021/05/22 07:59:24;;;;;;;1.90;0.63;;;18.60;52.70;;;;;;6295736;28;20051;-76
2021/05/22 08:02:25;;;;;;;1.05;0.40;;;18.70;52.90;;;;;;6296808;28;20046;-78
2021/05/22 08:05:26;;;;;;;0.43;0.40;;;18.90;52.90;;;;;;6279209;28;20029;-77
2021/05/22 08:08:27;;;;;;;1.02;0.52;;;19.10;52.30;;;;;;6279392;28;20055;-77
2021/05/22 08:11:28;;;;;;;3.70;0.50;;;19.10;52.70;;;;;;6275070;28;20044;-77
2021/05/22 08:14:29;;;;;;;0.73;0.43;;;19.40;52.30;;;;;;6276579;28;20120;-77
2021/05/22 08:17:32;;;;;;;0.40;0.40;;;19.50;51.90;;;;;;6296817;28;20028;-77
2021/05/22 08:20:34;;;;;;;0.90;0.40;;;19.60;51.40;;;;;;6285751;28;20029;-76
2021/05/22 08:23:35;;;;;;;1.67;0.70;;;19.70;51.10;;;;;;6267690;28;20041;-75
2021/05/22 08:26:39;;;;;;;1.15;0.68;;;19.80;50.40;;;;;;6275112;28;20033;-76
2021/05/22 08:29:39;;;;;;;4.75;0.60;;;19.90;50.30;;;;;;6305805;28;20066;-75
2021/05/22 08:32:41;;;;;;;0.80;0.50;;;20.00;49.90;;;;;;6273734;28;20036;-76
2021/05/22 08:35:43;;;;;;;1.15;0.45;;;20.10;48.90;;;;;;6271712;28;20448;-78
2021/05/22 08:38:45;;;;;;;0.43;0.40;;;20.30;48.30;;;;;;6280278;28;20493;-77
2021/05/22 08:41:48;;;;;;;0.35;0.30;;;20.40;48.30;;;;;;6279062;28;20120;-76
2021/05/22 08:44:50;;;;;;;0.65;0.30;;;20.60;47.70;;;;;;6286696;28;20385;-77
2021/05/22 08:47:55;;;;;;;1.60;0.70;;;20.70;47.40;;;;;;6254673;28;20040;-76
2021/05/22 08:50:56;;;;;;;0.60;0.30;;;20.70;46.80;;;;;;6287762;28;20089;-77
2021/05/22 08:53:58;;;;;;;0.50;0.30;;;20.70;46.30;;;;;;6278811;28;20020;-77
2021/05/22 08:57:00;;;;;;;0.73;0.30;;;20.70;46.10;;;;;;6296168;28;20386;-76
2021/05/22 09:00:01;;;;;;;0.40;0.40;;;20.80;45.90;;;;;;6286417;28;20076;-76
2021/05/22 09:03:03;;;;;;;0.63;0.55;;;20.80;45.50;;;;;;6280968;28;20081;-77
2021/05/22 09:06:05;;;;;;;0.80;0.35;;;20.70;45.20;;;;;;6284145;28;20091;-77
2021/05/22 09:09:06;;;;;;;0.32;0.32;;;20.70;45.70;;;;;;6282208;28;20457;-76
2021/05/22 09:12:08;;;;;;;0.30;0.30;;;20.60;45.90;;;;;;6288226;28;20086;-76
2021/05/22 09:15:11;;;;;;;0.30;0.28;;;20.70;45.80;;;;;;6256995;28;20040;-76
2021/05/22 09:18:15;;;;;;;1.25;0.40;;;20.80;45.80;;;;;;6300349;28;20329;-77
2021/05/22 09:21:16;;;;;;;1.20;0.43;;;20.80;45.30;;;;;;6282370;28;20024;-76
2021/05/22 09:24:17;;;;;;;1.17;0.40;;;20.90;45.00;;;;;;6283314;28;20032;-76
2021/05/22 09:27:18;;;;;;;1.15;0.30;;;20.90;44.40;;;;;;6299801;28;20059;-77
2021/05/22 09:30:20;;;;;;;2.10;0.70;;;21.00;44.10;;;;;;6299217;28;20049;-77
2021/05/22 09:33:29;;;;;;;1.05;0.65;;;20.90;44.00;;;;;;6283650;28;20033;-75
2021/05/22 09:36:45;;;;;;;2.00;0.55;;;20.90;44.30;;;;;;6301434;28;20540;-78
2021/05/22 09:39:48;;;;;;;2.08;0.60;;;20.90;44.50;;;;;;6301857;28;20032;-77
2021/05/22 09:42:49;;;;;;;1.33;0.60;;;21.00;44.80;;;;;;6298872;28;20063;-77
2021/05/22 09:45:52;;;;;;;1.67;0.70;;;21.10;45.00;;;;;;6300093;28;20479;-77
2021/05/22 09:49:02;;;;;;;1.15;0.50;;;21.20;44.60;;;;;;6283252;28;20050;-78
2021/05/22 09:52:17;;;;;;;1.88;0.45;;;21.30;44.20;;;;;;6285846;28;20104;-77
2021/05/22 09:55:20;;;;;;;0.52;0.40;;;21.30;44.00;;;;;;6284557;28;20048;-77
2021/05/22 09:58:35;;;;;;;1.40;0.50;;;21.50;43.90;;;;;;6299579;28;20032;-77
2021/05/22 10:01:43;;;;;;;0.38;0.38;;;21.50;43.80;;;;;;6300636;28;20119;-77
2021/05/22 10:04:44;;;;;;;1.35;0.80;;;21.70;43.40;;;;;;6266520;28;20484;-77
2021/05/22 10:07:47;;;;;;;0.25;0.25;;;22.00;43.10;;;;;;6283195;28;20041;-76
2021/05/22 10:10:50;;;;;;;5.18;0.70;;;22.20;42.50;;;;;;6296606;28;20061;-78
2021/05/22 10:13:52;;;;;;;2.15;0.93;;;22.40;42.10;;;;;;6287712;28;20033;-77
2021/05/22 10:16:53;;;;;;;0.40;0.40;;;22.40;41.60;;;;;;6276029;28;20041;-77
2021/05/22 10:19:55;;;;;;;2.30;0.32;;;22.50;41.60;;;;;;6282749;28;20047;-76
2021/05/22 10:22:56;;;;;;;1.48;0.55;;;22.60;41.50;;;;;;6283374;28;20047;-77
2021/05/22 10:25:58;;;;;;;2.47;0.60;;;22.60;41.40;;;;;;6300320;28;20052;-77
2021/05/22 10:29:00;;;;;;;1.05;0.55;;;22.50;41.20;;;;;;6283124;28;20508;-76
2021/05/22 10:32:01;;;;;;;1.05;0.60;;;22.60;41.10;;;;;;6283146;28;20048;-76
2021/05/22 10:35:13;;;;;;;5.82;1.40;;;22.60;41.00;;;;;;6300814;28;20067;-76
2021/05/22 10:38:32;;;;;;;2.42;0.52;;;22.80;41.20;;;;;;6298475;28;20119;-77
2021/05/22 10:41:38;;;;;;;3.47;0.55;;;23.00;40.70;;;;;;6292274;28;20029;-77
2021/05/22 10:44:39;;;;;;;3.50;0.88;;;23.20;40.50;;;;;;6287048;28;20056;-77
2021/05/22 10:47:40;;;;;;;1.27;0.80;;;23.30;41.00;;;;;;6293725;28;20051;-76
2021/05/22 10:50:46;;;;;;;0.80;0.30;;;23.40;39.30;;;;;;6279581;28;20028;-77
2021/05/22 10:54:03;;;;;;;1.05;0.60;;;23.30;38.70;;;;;;6295050;28;20052;-76
2021/05/22 10:57:07;;;;;;;1.23;0.60;;;23.30;38.70;;;;;;6271092;28;20028;-77
2021/05/22 11:00:14;;;;;;;1.67;0.60;;;23.80;38.50;;;;;;6288301;28;20490;-76
2021/05/22 11:03:15;;;;;;;1.60;0.50;;;24.50;36.60;;;;;;6295916;28;20032;-77
2021/05/22 11:06:45;;;;;;;2.03;0.70;;;25.00;34.90;;;;;;6295814;28;20050;-78
2021/05/22 11:09:49;;;;;;;1.58;0.70;;;25.20;34.20;;;;;;6282039;28;20036;-76
2021/05/22 11:12:50;;;;;;;3.85;0.95;;;25.40;33.90;;;;;;6288261;28;20041;-77
2021/05/22 11:15:56;;;;;;;2.35;0.43;;;25.70;33.50;;;;;;6255522;28;20033;-76
2021/05/22 11:18:59;;;;;;;2.72;0.80;;;26.10;32.90;;;;;;6273922;28;20098;-77
2021/05/22 11:22:21;;;;;;;3.58;0.60;;;26.80;32.10;;;;;;6272982;28;20072;-76
2021/05/22 11:25:23;;;;;;;2.65;0.57;;;27.10;31.40;;;;;;6254400;28;20376;-75
2021/05/22 11:28:24;;;;;;;2.40;0.40;;;27.40;31.60;;;;;;6285406;28;20096;-78
2021/05/22 11:31:33;;;;;;;1.88;0.80;;;27.60;31.40;;;;;;6295510;28;20059;-77
2021/05/22 11:34:36;;;;;;;2.05;0.70;;;27.50;31.40;;;;;;6274135;28;20063;-77
2021/05/22 11:37:37;;;;;;;3.63;0.55;;;27.40;30.90;;;;;;6296861;28;20037;-77
2021/05/22 11:40:39;;;;;;;1.02;0.45;;;27.40;31.10;;;;;;6286856;28;20047;-78
2021/05/22 11:43:42;;;;;;;0.40;0.40;;;27.60;30.70;;;;;;6274907;28;20420;-77
2021/05/22 11:46:52;;;;;;;0.80;0.57;;;28.10;30.10;;;;;;6273146;28;20089;-77
2021/05/22 11:49:53;;;;;;;3.65;0.47;;;28.50;29.80;;;;;;6278412;28;20032;-76
2021/05/22 11:52:54;;;;;;;3.20;0.60;;;29.00;29.60;;;;;;6277378;28;20032;-77
2021/05/22 11:55:57;;;;;;;2.70;0.88;;;29.50;29.20;;;;;;6280059;28;20418;-77
2021/05/22 11:58:59;;;;;;;0.70;0.55;;;29.90;28.50;;;;;;6294909;28;20125;-77
2021/05/22 12:02:01;;;;;;;3.72;0.80;;;30.10;28.40;;;;;;6294762;28;20050;-77
2021/05/22 12:05:04;;;;;;;1.33;0.90;;;30.50;28.10;;;;;;6279618;28;20112;-76
2021/05/22 12:08:13;;;;;;;1.25;0.60;;;30.60;27.60;;;;;;6269747;28;20044;-76
2021/05/22 12:11:16;;;;;;;0.90;0.40;;;30.50;27.20;;;;;;6265102;28;20100;-77
2021/05/22 12:14:17;;;;;;;1.77;0.60;;;30.60;27.30;;;;;;6264399;28;20066;-77
2021/05/22 12:17:20;;;;;;;2.75;0.52;;;30.80;27.70;;;;;;6267242;28;20041;-76
2021/05/22 12:20:23;;;;;;;1.15;0.60;;;31.20;26.70;;;;;;6276102;28;20055;-76
2021/05/22 12:23:33;;;;;;;2.90;0.70;;;31.30;26.50;;;;;;6271686;28;20052;-77
2021/05/22 12:26:36;;;;;;;6.35;0.85;;;31.40;26.50;;;;;;6244429;28;20029;-78
2021/05/22 12:29:38;;;;;;;0.68;0.30;;;31.60;26.10;;;;;;6237739;28;20331;-77
2021/05/22 12:32:39;;;;;;;3.08;0.50;;;31.70;26.00;;;;;;6253302;28;20049;-77
2021/05/22 12:35:40;;;;;;;5.25;0.50;;;31.90;25.90;;;;;;6279930;28;20045;-77
2021/05/22 12:38:46;;;;;;;0.55;0.45;;;32.00;25.20;;;;;;6246247;28;20383;-76
2021/05/22 12:41:47;;;;;;;0.90;0.70;;;32.00;25.00;;;;;;6254737;28;20546;-76
2021/05/22 12:44:56;;;;;;;1.55;0.50;;;31.90;25.10;;;;;;6253121;28;20036;-77
2021/05/22 12:47:57;;;;;;;3.60;0.90;;;31.50;25.40;;;;;;6272760;28;20508;-77
2021/05/22 12:51:19;;;;;;;0.35;0.28;;;31.00;25.80;;;;;;6279336;28;20028;-79
2021/05/22 12:54:28;;;;;;;1.58;0.47;;;30.30;26.30;;;;;;6291846;28;20033;-79
2021/05/22 12:57:37;;;;;;;2.75;0.47;;;29.70;26.80;;;;;;6277344;28;20082;-78
2021/05/22 13:00:38;;;;;;;2.10;0.60;;;29.10;26.90;;;;;;6295203;28;20035;-79
2021/05/22 13:03:47;;;;;;;1.95;0.50;;;28.60;27.40;;;;;;6294625;28;20052;-76
2021/05/22 13:06:52;;;;;;;3.13;0.50;;;28.30;27.70;;;;;;6300848;28;20446;-78
2021/05/22 13:09:53;;;;;;;1.90;0.45;;;28.00;28.00;;;;;;6295321;28;20512;-77
2021/05/22 13:13:05;;;;;;;1.05;0.60;;;27.70;28.20;;;;;;6280989;28;20118;-77
2021/05/22 13:16:14;;;;;;;1.33;0.50;;;27.30;28.60;;;;;;6277856;28;20052;-78
2021/05/22 13:19:15;;;;;;;2.03;0.73;;;27.20;29.10;;;;;;6254848;28;20033;-78
2021/05/22 13:22:29;;;;;;;0.77;0.45;;;27.10;29.20;;;;;;6276109;28;20365;-79
2021/05/22 13:25:33;;;;;;;3.47;0.90;;;27.30;29.10;;;;;;6293875;28;20116;-78
2021/05/22 13:28:36;;;;;;;1.10;0.70;;;28.20;28.70;;;;;;6277864;28;20044;-78
2021/05/22 13:31:43;;;;;;;0.85;0.47;;;28.80;28.00;;;;;;6252671;28;20093;-77
2021/05/22 13:34:47;;;;;;;0.82;0.57;;;28.80;27.90;;;;;;6252806;28;20310;-78
2021/05/22 13:37:48;;;;;;;0.60;0.43;;;28.70;27.60;;;;;;6285950;28;20033;-76
2021/05/22 13:40:49;;;;;;;1.98;0.50;;;28.80;28.10;;;;;;6269404;28;20048;-77
2021/05/22 13:43:50;;;;;;;5.18;0.55;;;29.20;27.50;;;;;;6240144;28;20098;-76
2021/05/22 13:46:51;;;;;;;0.93;0.70;;;30.10;26.80;;;;;;6268785;28;20041;-77
2021/05/22 13:49:52;;;;;;;0.50;0.50;;;30.60;26.40;;;;;;6272718;28;20186;-77
2021/05/22 13:52:54;;;;;;;0.57;0.50;;;30.40;26.40;;;;;;6274862;28;20048;-78
2021/05/22 13:55:55;;;;;;;1.25;0.52;;;30.00;26.50;;;;;;6275946;28;20052;-77
2021/05/22 13:58:56;;;;;;;3.83;0.70;;;29.50;27.20;;;;;;6274057;28;20060;-77
2021/05/22 14:01:58;;;;;;;1.27;0.70;;;29.20;27.20;;;;;;6275680;28;20052;-78
2021/05/22 14:04:59;;;;;;;3.05;0.70;;;29.20;27.30;;;;;;6279443;28;20054;-77
2021/05/22 14:08:01;;;;;;;0.68;0.40;;;29.50;27.00;;;;;;6257081;28;20485;-77
2021/05/22 14:11:02;;;;;;;1.70;0.50;;;29.90;26.60;;;;;;6273665;28;20033;-77
2021/05/22 14:14:03;;;;;;;0.52;0.52;;;31.00;26.00;;;;;;6272983;28;20073;-77
2021/05/22 14:17:04;;;;;;;2.17;0.60;;;32.50;24.70;;;;;;6257066;28;20117;-79
2021/05/22 14:20:08;;;;;;;1.58;0.40;;;33.20;23.50;;;;;;6268502;28;20033;-77
2021/05/22 14:23:09;;;;;;;1.77;0.73;;;33.10;23.50;;;;;;6249413;28;20087;-77
2021/05/22 14:26:10;;;;;;;1.15;0.60;;;33.00;23.60;;;;;;6265766;28;20044;-77
2021/05/22 14:29:11;;;;;;;2.10;0.60;;;32.50;23.70;;;;;;6243661;28;20048;-77
2021/05/22 14:32:13;;;;;;;0.57;0.50;;;31.90;24.20;;;;;;6248595;28;20474;-77
2021/05/22 14:35:19;;;;;;;1.67;0.40;;;31.50;24.70;;;;;;6271607;28;20033;-76
2021/05/22 14:38:20;;;;;;;1.23;0.70;;;31.40;25.00;;;;;;6289311;28;20044;-78
2021/05/22 14:41:21;;;;;;;3.03;0.65;;;31.40;25.00;;;;;;6289216;28;20112;-77
2021/05/22 14:44:22;;;;;;;0.60;0.60;;;31.40;24.80;;;;;;6269758;28;20037;-76
2021/05/22 14:47:24;;;;;;;2.17;0.63;;;31.40;25.10;;;;;;6270476;28;20093;-76
2021/05/22 14:50:25;;;;;;;0.88;0.50;;;31.00;25.10;;;;;;6279655;28;20052;-76
2021/05/22 14:53:26;;;;;;;1.33;0.50;;;30.60;25.50;;;;;;6264039;28;20041;-77
2021/05/22 14:56:27;;;;;;;3.50;0.70;;;30.10;26.00;;;;;;6271554;28;20037;-76
2021/05/22 14:59:28;;;;;;;1.75;0.60;;;29.60;26.30;;;;;;6271975;28;20037;-76
2021/05/22 15:02:32;;;;;;;1.25;0.50;;;29.10;26.90;;;;;;6255657;28;20128;-79
2021/05/22 15:05:36;;;;;;;2.20;0.60;;;28.70;27.30;;;;;;6272063;28;20396;-77
2021/05/22 15:08:37;;;;;;;0.50;0.50;;;28.30;27.70;;;;;;6271770;28;20037;-78
2021/05/22 15:11:38;;;;;;;2.05;0.65;;;28.10;28.00;;;;;;6278682;28;20040;-76
2021/05/22 15:14:39;;;;;;;0.60;0.47;;;27.80;28.20;;;;;;6270497;28;20537;-77
2021/05/22 15:17:41;;;;;;;1.70;0.70;;;27.40;28.30;;;;;;6270140;28;20038;-76
2021/05/22 15:20:42;;;;;;;3.38;0.60;;;27.10;29.00;;;;;;6248391;28;20033;-77
2021/05/22 15:23:43;;;;;;;3.60;1.70;;;26.80;28.80;;;;;;6249108;28;20029;-77
2021/05/22 15:26:45;;;;;;;1.52;0.50;;;26.50;29.20;;;;;;6287942;28;20358;-77
2021/05/22 15:29:46;;;;;;;2.95;0.32;;;26.30;29.60;;;;;;6273164;28;20082;-75
2021/05/22 15:32:47;;;;;;;1.88;0.70;;;26.10;29.70;;;;;;6288252;28;20051;-77
2021/05/22 15:35:48;;;;;;;3.53;0.73;;;26.00;29.90;;;;;;6255703;28;20048;-78
2021/05/22 15:38:52;;;;;;;1.25;0.70;;;26.00;30.00;;;;;;6254926;28;20366;-76
2021/05/22 15:41:54;;;;;;;3.95;0.77;;;26.10;30.00;;;;;;6238375;28;20127;-77
2021/05/22 15:44:57;;;;;;;1.38;0.55;;;26.20;29.90;;;;;;6288386;28;20406;-77
2021/05/22 16:00:51;;;;;;;1.38;0.73;;;31.30;25.00;;;;;;6289637;28;20036;-77
2021/05/22 16:07:07;;;;;;;1.25;0.60;;;33.10;22.90;;;;;;6269777;28;20048;-77
2021/05/22 16:10:08;;;;;;;1.83;0.45;;;34.00;22.00;;;;;;6280240;28;20461;-78